createdAt,value
2018-05-27T00:01:32.549Z,8.63
2018-05-27T00:04:00.052Z,32.90
2018-05-27T00:06:27.551Z,54.73
2018-05-27T00:08:55.827Z,7.80
2018-05-27T00:11:23.344Z,19.60
2018-05-27T00:13:52.034Z,8.40
2018-05-27T00:16:21.946Z,8.70
2018-05-27T00:18:49.499Z,8.00
2018-05-27T00:21:17.951Z,7.70
2018-05-27T00:23:45.506Z,9.73
2018-05-27T00:26:13.028Z,7.97
2018-05-27T00:28:41.306Z,10.40
2018-05-27T00:31:09.602Z,8.37
2018-05-27T00:33:37.107Z,8.57
2018-05-27T00:36:04.595Z,8.77
2018-05-27T00:38:32.878Z,8.07
2018-05-27T00:41:01.151Z,8.10
2018-05-27T00:43:29.468Z,9.50
2018-05-27T00:45:59.382Z,7.60
2018-05-27T00:48:26.883Z,8.53
2018-05-27T00:50:54.378Z,7.30
2018-05-27T00:53:33.742Z,7.63
2018-05-27T00:56:01.770Z,8.00
2018-05-27T00:58:29.288Z,8.17
2018-05-27T01:00:57.223Z,8.20
2018-05-27T01:03:27.665Z,8.87
2018-05-27T01:05:55.163Z,8.77
2018-05-27T01:08:22.684Z,8.17
2018-05-27T01:10:50.515Z,8.20
2018-05-27T01:13:18.510Z,8.60
2018-05-27T01:15:47.559Z,8.47
2018-05-27T01:18:16.617Z,7.87
2018-05-27T01:20:46.136Z,8.53
2018-05-27T01:23:14.368Z,9.03
2018-05-27T01:25:42.593Z,8.90
2018-05-27T01:28:11.375Z,9.03
2018-05-27T01:30:40.067Z,9.13
2018-05-27T01:33:08.538Z,8.73
2018-05-27T01:35:36.507Z,8.97
2018-05-27T01:38:04.082Z,10.57
2018-05-27T01:40:33.235Z,8.53
2018-05-27T01:43:01.659Z,8.67
2018-05-27T01:45:32.574Z,9.47
2018-05-27T01:48:01.788Z,8.90
2018-05-27T01:50:29.846Z,9.67
2018-05-27T01:52:57.379Z,9.40
2018-05-27T01:55:25.991Z,8.87
2018-05-27T01:57:57.006Z,9.60
2018-05-27T02:00:24.709Z,9.30
2018-05-27T02:02:53.105Z,8.47
2018-05-27T02:05:22.038Z,8.87
2018-05-27T02:07:49.910Z,10.47
2018-05-27T02:10:17.588Z,9.40
2018-05-27T02:12:46.429Z,10.13
2018-05-27T02:15:13.983Z,9.50
2018-05-27T02:17:45.557Z,9.60
2018-05-27T02:20:13.154Z,10.63
2018-05-27T02:22:40.661Z,10.90
2018-05-27T02:25:12.126Z,10.07
2018-05-27T02:27:39.622Z,9.93
2018-05-27T02:30:08.313Z,10.40
2018-05-27T02:32:35.985Z,9.70
2018-05-27T02:35:04.299Z,11.27
2018-05-27T02:37:34.861Z,10.93
2018-05-27T02:40:02.762Z,8.80
2018-05-27T02:42:31.724Z,10.70
2018-05-27T02:45:02.130Z,9.63
2018-05-27T02:47:30.206Z,9.80
2018-05-27T02:50:01.390Z,10.00
2018-05-27T02:52:29.791Z,9.93
2018-05-27T02:54:58.127Z,10.07
2018-05-27T02:57:26.410Z,9.23
2018-05-27T02:59:54.903Z,9.93
2018-05-27T03:02:23.064Z,9.67
2018-05-27T03:04:54.325Z,9.80
2018-05-27T03:07:21.901Z,10.77
2018-05-27T03:09:53.020Z,10.00
2018-05-27T03:12:24.057Z,10.43
2018-05-27T03:14:54.273Z,10.40
2018-05-27T03:17:22.974Z,10.23
2018-05-27T03:19:55.078Z,10.03
2018-05-27T03:22:26.480Z,10.67
2018-05-27T03:24:56.256Z,10.57
2018-05-27T03:27:24.562Z,10.27
2018-05-27T03:29:52.255Z,11.23
2018-05-27T03:32:23.982Z,11.10
2018-05-27T03:34:52.549Z,10.80
2018-05-27T03:37:23.613Z,11.00
2018-05-27T03:39:51.587Z,11.70
2018-05-27T03:42:20.683Z,11.80
2018-05-27T03:44:52.540Z,11.97
2018-05-27T03:47:20.604Z,11.50
2018-05-27T03:49:49.795Z,12.13
2018-05-27T03:52:19.235Z,11.43
2018-05-27T03:54:47.653Z,12.17
2018-05-27T03:57:17.960Z,12.93
2018-05-27T03:59:47.166Z,14.50
2018-05-27T04:02:15.714Z,13.13
2018-05-27T04:05:03.967Z,14.17
2018-05-27T04:07:44.301Z,13.30
2018-05-27T04:10:12.076Z,13.73
2018-05-27T04:12:39.752Z,14.20
2018-05-27T04:15:08.077Z,13.70
2018-05-27T04:17:35.778Z,14.00
2018-05-27T04:20:03.527Z,15.20
2018-05-27T04:22:31.052Z,12.60
2018-05-27T04:25:00.524Z,14.43
2018-05-27T04:27:28.227Z,13.93
2018-05-27T04:29:55.859Z,14.30
2018-05-27T04:32:24.570Z,13.30
2018-05-27T04:34:53.074Z,13.67
2018-05-27T04:37:21.576Z,15.13
2018-05-27T04:39:49.316Z,14.00
2018-05-27T04:42:17.721Z,14.17
2018-05-27T04:44:45.278Z,13.30
2018-05-27T04:47:14.788Z,14.97
2018-05-27T04:49:42.597Z,13.40
2018-05-27T04:52:11.559Z,13.70
2018-05-27T04:54:40.492Z,14.63
2018-05-27T04:57:08.364Z,15.13
2018-05-27T04:59:36.463Z,13.57
2018-05-27T05:02:04.951Z,14.27
2018-05-27T05:04:33.743Z,13.30
2018-05-27T05:07:01.919Z,13.67
2018-05-27T05:09:30.864Z,12.67
2018-05-27T05:11:59.501Z,13.67
2018-05-27T05:14:28.212Z,13.37
2018-05-27T05:16:57.355Z,13.00
2018-05-27T05:19:24.942Z,13.10
2018-05-27T05:21:52.775Z,13.63
2018-05-27T05:24:21.113Z,13.33
2018-05-27T05:26:48.751Z,13.50
2018-05-27T05:29:17.762Z,12.03
2018-05-27T05:31:47.204Z,12.03
2018-05-27T05:34:16.616Z,13.07
2018-05-27T05:36:44.988Z,12.57
2018-05-27T05:39:14.234Z,12.23
2018-05-27T05:41:42.965Z,12.37
2018-05-27T05:44:12.008Z,11.83
2018-05-27T05:46:41.016Z,11.47
2018-05-27T05:49:08.785Z,11.87
2018-05-27T05:51:38.039Z,12.13
2018-05-27T05:54:06.769Z,12.00
2018-05-27T05:56:35.466Z,11.20
2018-05-27T05:59:03.202Z,11.47
2018-05-27T06:01:30.950Z,12.83
2018-05-27T06:03:58.560Z,12.00
2018-05-27T06:06:26.200Z,11.37
2018-05-27T06:08:54.719Z,10.87
2018-05-27T06:11:22.337Z,10.83
2018-05-27T06:13:50.135Z,10.10
2018-05-27T06:16:18.430Z,11.40
2018-05-27T06:18:47.215Z,10.37
2018-05-27T06:21:15.538Z,11.57
2018-05-27T06:23:45.648Z,11.17
2018-05-27T06:26:13.175Z,9.50
2018-05-27T06:28:42.565Z,10.40
2018-05-27T06:31:12.515Z,11.00
2018-05-27T06:33:41.917Z,9.67
2018-05-27T06:36:09.527Z,10.70
2018-05-27T06:38:38.005Z,9.67
2018-05-27T06:41:06.104Z,9.63
2018-05-27T06:43:35.002Z,9.87
2018-05-27T06:46:04.565Z,9.57
2018-05-27T06:48:32.839Z,9.83
2018-05-27T06:51:02.474Z,9.43
2018-05-27T06:53:29.976Z,8.87
2018-05-27T06:55:59.915Z,8.87
2018-05-27T06:58:29.751Z,9.40
2018-05-27T07:00:57.744Z,9.20
2018-05-27T07:03:25.459Z,8.30
2018-05-27T07:05:53.631Z,9.53
2018-05-27T07:08:23.248Z,9.37
2018-05-27T07:10:54.384Z,9.13
2018-05-27T07:13:21.896Z,8.13
2018-05-27T07:15:51.717Z,8.23
2018-05-27T07:18:21.295Z,8.70
2018-05-27T07:20:49.160Z,7.23
2018-05-27T07:23:17.856Z,9.37
2018-05-27T07:25:46.812Z,9.17
2018-05-27T07:28:18.766Z,8.40
2018-05-27T07:30:48.693Z,8.13
2018-05-27T07:33:17.071Z,9.30
2018-05-27T07:35:44.586Z,8.60
2018-05-27T07:38:13.724Z,8.70
2018-05-27T07:40:42.927Z,7.77
2018-05-27T07:43:10.440Z,7.47
2018-05-27T07:45:38.879Z,7.87
2018-05-27T07:48:06.687Z,7.70
2018-05-27T07:50:35.919Z,7.27
2018-05-27T07:53:04.259Z,8.03
2018-05-27T07:55:33.971Z,7.97
2018-05-27T07:58:03.687Z,7.63
2018-05-27T08:00:31.966Z,8.80
2018-05-27T08:03:00.994Z,7.70
2018-05-27T08:05:28.591Z,8.73
2018-05-27T08:07:58.986Z,8.20
2018-05-27T08:10:26.867Z,11.80
2018-05-27T08:12:56.951Z,8.27
2018-05-27T08:15:26.604Z,8.50
2018-05-27T08:17:55.019Z,8.90
2018-05-27T08:20:23.406Z,8.93
2018-05-27T08:22:51.737Z,7.90
2018-05-27T08:25:25.143Z,8.90
2018-05-27T08:27:58.013Z,8.77
2018-05-27T08:30:29.052Z,8.77
2018-05-27T08:33:01.175Z,8.40
2018-05-27T08:38:05.142Z,8.70
2018-05-27T08:40:33.002Z,8.70
2018-05-27T08:43:02.185Z,8.20
2018-05-27T08:45:31.782Z,8.40
2018-05-27T08:47:59.331Z,8.90
2018-05-27T08:50:32.765Z,8.63
2018-05-27T08:53:00.439Z,8.27
2018-05-27T08:55:28.990Z,9.47
2018-05-27T08:57:56.689Z,9.60
2018-05-27T09:00:24.437Z,8.40
2018-05-27T09:02:52.321Z,8.80
2018-05-27T09:05:19.866Z,7.93
2018-05-27T09:07:50.304Z,9.00
2018-05-27T09:10:17.927Z,8.20
2018-05-27T09:12:45.759Z,8.40
2018-05-27T09:15:13.370Z,8.10
2018-05-27T09:17:42.011Z,8.17
2018-05-27T09:20:09.796Z,7.90
2018-05-27T09:22:37.582Z,8.03
2018-05-27T09:25:06.547Z,8.10
2018-05-27T09:27:34.955Z,6.60
2018-05-27T09:30:05.082Z,8.00
2018-05-27T09:32:34.073Z,7.33
2018-05-27T09:35:03.271Z,8.57
2018-05-27T09:37:32.285Z,7.50
2018-05-27T09:40:00.228Z,7.20
2018-05-27T09:42:38.698Z,22.13
2018-05-27T09:58:35.484Z,8.23
2018-05-27T10:01:07.591Z,7.63
2018-05-27T10:03:38.566Z,8.10
2018-05-27T10:06:09.828Z,9.80
2018-05-27T10:08:37.806Z,8.10
2018-05-27T10:11:09.268Z,8.37
2018-05-27T10:13:37.218Z,7.70
2018-05-27T10:16:04.982Z,8.70
2018-05-27T10:18:32.991Z,8.37
2018-05-27T10:21:02.320Z,8.57
2018-05-27T10:26:06.371Z,8.07
2018-05-27T10:28:34.018Z,8.03
2018-05-27T10:31:02.610Z,7.57
2018-05-27T10:33:30.123Z,7.23
2018-05-27T10:35:58.484Z,6.10
2018-05-27T10:38:26.132Z,5.90
2018-05-27T10:43:26.647Z,5.90
2018-05-27T10:50:49.437Z,6.15
2018-05-27T10:53:17.833Z,6.50
2018-05-27T10:55:45.464Z,7.03
2018-05-27T10:58:13.735Z,7.20
2018-05-27T11:00:41.273Z,6.87
2018-05-27T11:03:11.484Z,5.97
2018-05-27T11:05:43.032Z,5.73
2018-05-27T11:08:12.637Z,6.40
2018-05-27T11:10:40.924Z,6.63
2018-05-27T11:13:08.439Z,6.57
2018-05-27T11:15:36.859Z,5.97
2018-05-27T11:18:05.786Z,6.47
2018-05-27T11:20:35.655Z,6.53
2018-05-27T11:23:03.531Z,6.83
2018-05-27T11:25:31.257Z,7.10
2018-05-27T11:27:58.799Z,6.73
2018-05-27T11:30:27.282Z,6.70
2018-05-27T11:32:55.986Z,6.97
2018-05-27T11:35:23.656Z,7.60
2018-05-27T11:37:52.223Z,7.07
2018-05-27T11:40:20.640Z,7.27
2018-05-27T11:42:48.178Z,7.10
2018-05-27T11:45:16.615Z,7.30
2018-05-27T11:47:44.489Z,8.53
2018-05-27T11:50:12.832Z,7.00
2018-05-27T11:52:40.473Z,7.20
2018-05-27T11:55:08.293Z,7.20
2018-05-27T11:57:36.576Z,6.50
2018-05-27T12:00:05.561Z,7.60
2018-05-27T12:02:33.677Z,8.10
2018-05-27T12:05:02.673Z,7.77
2018-05-27T12:07:32.872Z,7.10
2018-05-27T12:10:01.642Z,7.40
2018-05-27T12:12:30.555Z,7.37
2018-05-27T12:14:58.162Z,6.80
2018-05-27T12:17:25.826Z,7.20
2018-05-27T12:19:53.386Z,6.33
2018-05-27T12:22:21.012Z,5.40
2018-05-27T12:24:49.797Z,7.27
2018-05-27T12:27:17.975Z,6.07
2018-05-27T12:29:47.536Z,6.10
2018-05-27T12:32:17.815Z,6.80
2018-05-27T12:34:45.315Z,6.23
2018-05-27T12:37:13.744Z,7.30
2018-05-27T12:39:41.552Z,6.70
2018-05-27T12:42:09.788Z,6.47
2018-05-27T12:44:38.648Z,6.60
2018-05-27T12:47:06.175Z,8.17
2018-05-27T12:49:33.675Z,6.40
2018-05-27T12:52:01.989Z,7.30
2018-05-27T12:54:29.525Z,7.07
2018-05-27T12:56:57.955Z,6.90
2018-05-27T12:59:26.311Z,6.60
2018-05-27T13:01:54.147Z,6.33
2018-05-27T13:04:24.088Z,6.03
2018-05-27T13:06:52.058Z,5.80
2018-05-27T13:09:20.708Z,6.53
2018-05-27T13:11:49.903Z,6.40
2018-05-27T13:14:17.603Z,6.50
2018-05-27T13:16:46.470Z,6.40
2018-05-27T13:19:13.913Z,5.90
2018-05-27T13:21:44.555Z,6.70
2018-05-27T13:24:16.538Z,5.50
2018-05-27T13:26:45.558Z,6.30
2018-05-27T13:29:13.399Z,4.90
2018-05-27T13:31:41.158Z,5.47
2018-05-27T13:34:08.988Z,5.63
2018-05-27T13:36:38.695Z,5.53
2018-05-27T13:39:07.000Z,5.00
2018-05-27T13:41:35.196Z,5.93
2018-05-27T13:44:04.164Z,5.47
2018-05-27T13:46:32.209Z,8.30
2018-05-27T13:49:00.561Z,4.60
2018-05-27T13:51:31.025Z,4.90
2018-05-27T13:53:59.641Z,4.70
2018-05-27T13:56:29.147Z,4.90
2018-05-27T13:58:56.823Z,4.80
2018-05-27T14:01:24.443Z,4.40
2018-05-27T14:03:52.865Z,5.33
2018-05-27T14:06:24.195Z,3.10
2018-05-27T14:08:52.315Z,3.40
2018-05-27T14:11:21.383Z,4.17
2018-05-27T14:13:51.828Z,4.50
2018-05-27T14:16:19.359Z,3.73
2018-05-27T14:18:47.960Z,3.53
2018-05-27T14:21:15.635Z,3.67
2018-05-27T14:23:44.359Z,3.63
2018-05-27T14:28:44.489Z,3.60
2018-05-27T14:31:12.890Z,4.30
2018-05-27T14:33:46.282Z,4.30
2018-05-27T14:36:15.536Z,4.77
2018-05-27T14:38:52.731Z,4.30
2018-05-27T14:41:21.413Z,4.50
2018-05-27T14:43:59.272Z,4.47
2018-05-27T14:46:27.359Z,4.33
2018-05-27T14:48:55.321Z,5.20
2018-05-27T14:51:26.924Z,4.50
2018-05-27T14:53:55.387Z,4.83
2018-05-27T14:56:24.593Z,5.07
2018-05-27T14:58:59.377Z,4.53
2018-05-27T15:01:27.274Z,4.13
2018-05-27T15:04:01.323Z,4.63
2018-05-27T15:06:29.255Z,4.70
2018-05-27T15:08:56.919Z,4.60
2018-05-27T15:11:25.582Z,8.07
2018-05-27T15:13:55.344Z,4.77
2018-05-27T15:16:26.804Z,4.70
2018-05-27T15:19:11.220Z,4.47
2018-05-27T15:21:39.069Z,5.30
2018-05-27T15:24:10.394Z,4.50
2018-05-27T15:26:42.363Z,6.03
2018-05-27T15:29:11.782Z,4.77
2018-05-27T15:31:41.050Z,4.53
2018-05-27T15:34:09.500Z,4.57
2018-05-27T15:36:38.993Z,4.53
2018-05-27T15:39:07.155Z,3.93
2018-05-27T15:41:35.772Z,6.73
2018-05-27T15:44:03.439Z,5.10
2018-05-27T15:46:38.741Z,7.87
2018-05-27T15:49:06.883Z,4.83
2018-05-27T15:51:35.303Z,15.80
2018-05-27T15:54:04.095Z,12.37
2018-05-27T15:56:35.191Z,10.03
2018-05-27T15:59:03.409Z,5.53
2018-05-27T16:04:17.891Z,5.00
2018-05-27T16:06:45.697Z,5.23
2018-05-27T16:09:16.225Z,5.80
2018-05-27T16:11:47.190Z,5.00
2018-05-27T16:14:14.687Z,5.50
2018-05-27T16:16:42.254Z,4.73
2018-05-27T16:19:10.990Z,6.17
2018-05-27T16:21:38.513Z,5.43
2018-05-27T16:24:10.616Z,5.83
2018-05-27T16:26:39.290Z,5.80
2018-05-27T16:29:22.823Z,4.63
2018-05-27T16:31:50.491Z,5.80
2018-05-27T16:34:22.502Z,5.53
2018-05-27T16:36:50.219Z,6.30
2018-05-27T16:39:18.686Z,6.00
2018-05-27T16:41:49.961Z,5.70
2018-05-27T16:44:17.675Z,5.27
2018-05-27T16:46:46.658Z,5.33
2018-05-27T16:49:16.411Z,5.43
2018-05-27T16:51:46.030Z,4.70
2018-05-27T16:54:13.998Z,5.00
2018-05-27T16:56:42.280Z,5.00
2018-05-27T16:59:11.173Z,4.70
2018-05-27T17:01:41.631Z,5.00
2018-05-27T17:04:11.980Z,5.60
2018-05-27T17:06:43.454Z,6.53
2018-05-27T17:09:12.466Z,5.60
2018-05-27T17:11:41.105Z,6.13
2018-05-27T17:14:10.962Z,5.87
2018-05-27T17:16:39.870Z,5.90
2018-05-27T17:21:49.961Z,5.80
2018-05-27T17:24:19.002Z,5.85
2018-05-27T17:26:51.112Z,5.50
2018-05-27T17:29:23.577Z,4.80
2018-05-27T17:31:52.874Z,6.63
2018-05-27T17:34:23.492Z,6.37
2018-05-27T17:36:54.321Z,7.90
2018-05-27T17:39:22.917Z,7.07
2018-05-27T17:41:51.779Z,8.47
2018-05-27T17:44:19.749Z,6.17
2018-05-27T17:46:51.550Z,5.90
2018-05-27T17:49:22.522Z,12.20
2018-05-27T17:51:52.465Z,13.20
2018-05-27T17:54:22.359Z,30.40
2018-05-27T17:56:51.262Z,7.30
2018-05-27T17:59:20.455Z,8.80
2018-05-27T18:01:48.125Z,7.77
2018-05-27T18:04:16.913Z,10.00
2018-05-27T18:06:49.368Z,6.80
2018-05-27T18:12:19.914Z,5.00
2018-05-27T18:14:53.253Z,5.40
2018-05-27T18:17:24.819Z,5.70
2018-05-27T18:19:52.462Z,6.40
2018-05-27T18:22:22.793Z,5.77
2018-05-27T18:24:56.431Z,6.13
2018-05-27T18:27:27.129Z,4.60
2018-05-27T18:29:57.282Z,6.30
2018-05-27T18:32:28.361Z,5.00
2018-05-27T18:34:56.972Z,5.53
2018-05-27T18:37:27.114Z,5.40
2018-05-27T18:39:55.564Z,5.47
2018-05-27T18:42:25.420Z,6.37
2018-05-27T18:44:53.554Z,5.87
2018-05-27T18:47:23.990Z,5.83
2018-05-27T18:49:53.924Z,6.65
2018-05-27T18:52:24.163Z,6.20
2018-05-27T18:54:53.306Z,5.90
2018-05-27T18:57:24.727Z,6.17
2018-05-27T18:59:53.896Z,6.70
2018-05-27T19:02:24.146Z,6.97
2018-05-27T19:04:54.150Z,7.10
2018-05-27T19:07:22.383Z,8.07
2018-05-27T19:09:52.590Z,8.90
2018-05-27T19:12:21.304Z,11.17
2018-05-27T19:14:48.942Z,8.23
2018-05-27T19:17:18.637Z,7.17
2018-05-27T19:19:46.444Z,7.27
2018-05-27T19:22:17.640Z,8.07
2018-05-27T19:24:46.149Z,7.67
2018-05-27T19:27:15.072Z,7.37
2018-05-27T19:29:44.113Z,6.63
2018-05-27T19:32:12.532Z,7.03
2018-05-27T19:34:41.652Z,6.40
2018-05-27T19:37:10.081Z,7.97
2018-05-27T19:42:14.414Z,6.17
2018-05-27T19:44:42.127Z,6.20
2018-05-27T19:47:09.938Z,6.40
2018-05-27T19:49:39.309Z,7.47
2018-05-27T19:52:07.176Z,6.57
2018-05-27T19:54:35.564Z,6.43
2018-05-27T19:57:03.952Z,6.67
2018-05-27T19:59:31.690Z,6.40
2018-05-27T20:01:59.456Z,7.70
2018-05-27T20:04:27.047Z,7.70
2018-05-27T20:06:55.149Z,7.25
2018-05-27T20:09:22.792Z,7.70
2018-05-27T20:11:51.120Z,7.07
2018-05-27T20:14:18.803Z,7.57
2018-05-27T20:16:46.421Z,7.03
2018-05-27T20:19:14.642Z,6.90
2018-05-27T20:21:42.203Z,6.50
2018-05-27T20:24:09.946Z,6.60
2018-05-27T20:26:52.549Z,6.90
2018-05-27T20:29:24.854Z,7.97
2018-05-27T20:31:52.505Z,7.30
2018-05-27T20:34:20.906Z,7.13
2018-05-27T20:36:51.940Z,8.20
2018-05-27T20:39:19.477Z,8.50
2018-05-27T20:41:47.065Z,7.73
2018-05-27T20:44:14.687Z,8.93
2018-05-27T20:46:43.090Z,8.60
2018-05-27T20:49:10.736Z,9.77
2018-05-27T20:51:41.036Z,8.43
2018-05-27T20:54:08.628Z,8.30
2018-05-27T20:56:36.279Z,8.60
2018-05-27T20:59:03.836Z,8.43
2018-05-27T21:01:31.407Z,7.47
2018-05-27T21:03:59.085Z,8.30
2018-05-27T21:06:28.253Z,8.50
2018-05-27T21:08:58.421Z,8.40
2018-05-27T21:11:26.067Z,10.00
2018-05-27T21:13:53.668Z,9.30
2018-05-27T21:16:23.751Z,9.60
2018-05-27T21:18:52.251Z,10.17
2018-05-27T21:21:21.802Z,8.80
2018-05-27T21:23:49.606Z,9.50
2018-05-27T21:26:17.472Z,9.80
2018-05-27T21:28:46.625Z,10.47
2018-05-27T21:31:14.285Z,10.30
2018-05-27T21:33:43.102Z,9.97
2018-05-27T21:36:12.258Z,8.70
2018-05-27T21:38:41.520Z,9.60
2018-05-27T21:41:11.408Z,8.80
2018-05-27T21:43:39.369Z,9.20
2018-05-27T21:46:08.924Z,10.13
2018-05-27T21:48:36.961Z,9.70
2018-05-27T21:51:04.638Z,9.17
2018-05-27T21:53:33.256Z,10.33
2018-05-27T21:56:01.573Z,8.80
2018-05-27T21:58:29.196Z,9.40
2018-05-27T22:00:57.690Z,8.87
2018-05-27T22:03:26.442Z,9.10
2018-05-27T22:05:54.141Z,9.10
2018-05-27T22:08:21.929Z,9.90
2018-05-27T22:10:50.410Z,9.50
2018-05-27T22:13:18.076Z,9.00
2018-05-27T22:15:45.841Z,8.53
2018-05-27T22:18:14.221Z,8.70
2018-05-27T22:20:41.847Z,8.73
2018-05-27T22:23:11.695Z,8.73
2018-05-27T22:25:41.026Z,7.37
2018-05-27T22:28:09.088Z,8.20
2018-05-27T22:30:36.789Z,9.03
2018-05-27T22:33:05.316Z,8.03
2018-05-27T22:35:33.288Z,7.53
2018-05-27T22:38:01.057Z,8.10
2018-05-27T22:40:28.768Z,8.60
2018-05-27T22:42:56.793Z,7.87
2018-05-27T22:45:26.448Z,8.67
2018-05-27T22:47:54.877Z,8.30
2018-05-27T22:50:25.234Z,9.83
2018-05-27T22:52:52.932Z,8.83
2018-05-27T22:55:22.374Z,9.80
2018-05-27T22:57:55.394Z,9.50
2018-05-27T23:00:23.948Z,9.13
2018-05-27T23:02:52.016Z,8.60
2018-05-27T23:05:19.734Z,8.80
2018-05-27T23:07:48.409Z,8.30
2018-05-27T23:10:16.876Z,11.43
2018-05-27T23:12:45.672Z,10.30
2018-05-27T23:15:13.404Z,10.17
2018-05-27T23:17:41.084Z,7.60
2018-05-27T23:20:09.621Z,8.80
2018-05-27T23:22:37.863Z,8.80
2018-05-27T23:25:06.359Z,9.47
2018-05-27T23:27:35.573Z,9.00
2018-05-27T23:30:03.736Z,8.40
2018-05-27T23:32:32.876Z,8.90
2018-05-27T23:35:01.375Z,9.67
2018-05-27T23:37:32.213Z,9.50
2018-05-27T23:40:00.801Z,8.90
2018-05-27T23:42:29.388Z,10.03
2018-05-27T23:44:57.083Z,9.00
2018-05-27T23:47:25.481Z,8.87
2018-05-27T23:49:54.504Z,9.70
2018-05-27T23:52:22.824Z,10.90
2018-05-27T23:54:51.573Z,11.33
2018-05-27T23:57:20.840Z,12.50
2018-05-27T23:59:48.895Z,12.20
